Time;durP1;ratioP1;P1;durP2;ratioP2;P2;SDS_P1;SDS_P2;PMS_P1;PMS_P2;Temp;Humidity;BMP_temperature;BMP_pressure;BME280_temperature;BME280_humidity;BME280_pressure;Samples;Min_cycle;Max_cycle;Signal;HPM_P1;HPM_P2
2023/12/04 00:00:37;;;;;;;14.17;7.63;;;;;;;-2.73;nan;99645.03;4990622;28;20199;-79
2023/12/04 00:03:03;;;;;;;6.73;6.07;;;;;;;-2.79;nan;99635.66;5000882;28;20258;-81
2023/12/04 00:05:29;;;;;;;12.10;6.87;;;;;;;-2.83;nan;99633.16;4995682;28;20214;-78
2023/12/04 00:07:54;;;;;;;10.80;6.47;;;;;;;-2.87;nan;99628.88;5004429;28;20624;-78
2023/12/04 00:10:20;;;;;;;13.87;7.77;;;;;;;-2.90;nan;99615.19;5001211;28;20198;-79
2023/12/04 00:12:45;;;;;;;16.57;7.80;;;;;;;-2.92;nan;99606.66;4998148;28;20199;-78
2023/12/04 00:15:11;;;;;;;10.97;6.40;;;;;;;-2.95;nan;99604.09;4999145;28;20449;-79
2023/12/04 00:17:39;;;;;;;20.57;9.53;;;;;;;-2.95;nan;99598.94;5006950;28;20199;-78
2023/12/04 00:20:09;;;;;;;9.27;7.20;;;;;;;-2.93;nan;99606.66;5000914;28;20937;-78
2023/12/04 00:22:36;;;;;;;9.85;7.68;;;;;;;-2.87;nan;99587.75;5006849;28;20222;-78
2023/12/04 00:25:03;;;;;;;8.98;6.50;;;;;;;-2.81;nan;99582.53;5003848;28;20306;-81
2023/12/04 00:27:29;;;;;;;13.02;6.78;;;;;;;-2.74;nan;99574.75;5001478;28;20196;-78
2023/12/04 00:29:54;;;;;;;20.10;10.10;;;;;;;-2.67;nan;99570.44;5005030;28;20229;-78
2023/12/04 00:32:19;;;;;;;5.87;5.37;;;;;;;-2.64;nan;99575.53;4996951;28;21555;-79
2023/12/04 00:34:45;;;;;;;16.90;8.53;;;;;;;-2.63;nan;99574.66;5001515;28;20876;-78
2023/12/04 00:37:10;;;;;;;7.93;6.73;;;;;;;-2.63;nan;99569.50;4994152;28;20415;-78
2023/12/04 00:39:35;;;;;;;7.87;5.63;;;;;;;-2.60;nan;99566.91;4998856;28;20943;-81
2023/12/04 00:42:01;;;;;;;7.60;5.30;;;;;;;-2.59;nan;99568.63;4995120;28;20199;-78
2023/12/04 00:44:26;;;;;;;10.33;5.93;;;;;;;-2.60;nan;99564.31;5001729;28;20301;-78
2023/12/04 00:46:51;;;;;;;14.63;8.70;;;;;;;-2.61;nan;99567.78;5001740;28;20552;-78
2023/12/04 00:49:17;;;;;;;9.80;7.40;;;;;;;-2.65;nan;99555.81;4990776;28;20210;-78
2023/12/04 00:51:42;;;;;;;10.33;6.40;;;;;;;-2.67;nan;99562.72;4998919;28;20227;-78
2023/12/04 00:54:08;;;;;;;16.60;8.87;;;;;;;-2.66;nan;99569.53;5002478;28;20222;-78
2023/12/04 00:56:34;;;;;;;11.00;7.77;;;;;;;-2.69;nan;99560.16;4998165;28;20285;-78
2023/12/04 00:58:59;;;;;;;9.50;5.57;;;;;;;-2.73;nan;99557.63;5001262;28;20234;-79
2023/12/04 01:01:24;;;;;;;12.80;6.10;;;;;;;-2.76;nan;99555.09;5003072;28;20332;-78
2023/12/04 01:03:50;;;;;;;10.83;6.40;;;;;;;-2.77;nan;99550.81;5004733;28;20215;-78
2023/12/04 01:06:22;;;;;;;14.70;8.17;;;;;;;-2.74;nan;99550.78;5017278;28;20211;-78
2023/12/04 01:08:48;;;;;;;15.05;9.48;;;;;;;-2.68;nan;99555.84;5015185;28;20426;-78
2023/12/04 01:11:15;;;;;;;10.15;6.60;;;;;;;-2.60;nan;99554.03;5009717;28;20207;-78
2023/12/04 01:13:40;;;;;;;12.02;7.38;;;;;;;-2.55;nan;99556.56;5002436;28;20672;-78
2023/12/04 01:16:06;;;;;;;9.50;7.23;;;;;;;-2.51;nan;99558.22;4999869;28;20206;-78
2023/12/04 01:18:32;;;;;;;8.18;5.70;;;;;;;-2.47;nan;99567.63;4992876;28;20203;-78
2023/12/04 01:20:57;;;;;;;9.00;6.20;;;;;;;-2.46;nan;99564.16;4998460;28;20211;-78
2023/12/04 01:23:22;;;;;;;13.00;7.57;;;;;;;-2.47;nan;99560.75;5001574;28;20658;-77
2023/12/04 01:25:48;;;;;;;17.50;7.17;;;;;;;-2.47;nan;99562.47;5002742;28;20207;-78
2023/12/04 01:28:14;;;;;;;15.23;9.67;;;;;;;-2.47;nan;99560.75;4999028;28;20200;-78
2023/12/04 01:30:39;;;;;;;10.30;8.20;;;;;;;-2.49;nan;99554.78;5001190;28;20203;-78
2023/12/04 01:33:05;;;;;;;13.07;9.50;;;;;;;-2.55;nan;99548.84;4999679;28;20504;-78
2023/12/04 01:35:30;;;;;;;10.00;8.67;;;;;;;-2.62;nan;99540.38;5001225;28;20203;-78
2023/12/04 01:37:56;;;;;;;11.03;7.47;;;;;;;-2.71;nan;99536.16;5005280;28;20595;-79
2023/12/04 01:40:21;;;;;;;18.83;8.80;;;;;;;-2.75;nan;99525.97;4999437;28;20238;-78
2023/12/04 01:42:46;;;;;;;11.00;7.17;;;;;;;-2.77;nan;99528.53;5002442;28;20215;-79
2023/12/04 01:45:12;;;;;;;17.07;8.47;;;;;;;-2.74;nan;99522.50;5001443;28;20257;-79
2023/12/04 01:47:38;;;;;;;13.57;10.27;;;;;;;-2.70;nan;99513.88;5000667;28;20253;-78
2023/12/04 01:50:05;;;;;;;13.60;7.90;;;;;;;-2.70;nan;99519.00;4997901;28;20211;-79
2023/12/04 01:52:31;;;;;;;12.65;7.38;;;;;;;-2.70;nan;99512.19;5000922;28;20203;-79
2023/12/04 01:54:57;;;;;;;11.57;7.43;;;;;;;-2.68;nan;99519.84;5004563;28;20879;-78
2023/12/04 01:57:22;;;;;;;13.77;6.60;;;;;;;-2.63;nan;99518.09;4997825;28;20215;-78
2023/12/04 01:59:48;;;;;;;12.53;7.57;;;;;;;-2.57;nan;99518.00;4998997;28;20240;-78
2023/12/04 02:02:13;;;;;;;16.23;8.77;;;;;;;-2.52;nan;99513.66;5002609;28;20293;-78
2023/12/04 02:04:39;;;;;;;12.13;8.33;;;;;;;-2.49;nan;99515.34;5004028;28;20457;-78
2023/12/04 02:07:04;;;;;;;13.23;9.20;;;;;;;-2.49;nan;99507.63;5000841;28;20222;-78
2023/12/04 02:09:30;;;;;;;14.70;6.70;;;;;;;-2.54;nan;99506.84;5003998;28;20303;-78
2023/12/04 02:11:56;;;;;;;9.63;7.10;;;;;;;-2.57;nan;99504.31;5003569;28;20188;-78
2023/12/04 02:14:23;;;;;;;12.43;7.18;;;;;;;-2.56;nan;99500.88;4995297;28;20926;-78
2023/12/04 02:16:50;;;;;;;10.52;7.63;;;;;;;-2.53;nan;99503.41;5001373;28;20275;-78
2023/12/04 02:19:15;;;;;;;12.80;9.50;;;;;;;-2.49;nan;99508.47;5002415;28;20191;-78
2023/12/04 02:21:41;;;;;;;10.97;7.27;;;;;;;-2.45;nan;99501.59;5004720;28;20200;-77
2023/12/04 02:24:07;;;;;;;7.20;6.20;;;;;;;-2.43;nan;99509.28;5003196;28;20267;-77
2023/12/04 02:26:43;;;;;;;11.85;6.13;;;;;;;-2.43;nan;99511.84;4999670;28;21002;-77
2023/12/04 02:29:18;;;;;;;10.57;7.47;;;;;;;-2.40;nan;99510.09;4995193;28;20672;-78
2023/12/04 02:31:45;;;;;;;14.30;7.65;;;;;;;-2.36;nan;99514.31;4999446;28;20206;-78
2023/12/04 02:34:15;;;;;;;7.60;6.75;;;;;;;-2.33;nan;99516.84;4999289;28;20700;-78
2023/12/04 02:36:42;;;;;;;8.20;6.80;;;;;;;-2.32;nan;99509.97;4990655;28;20596;-77
2023/12/04 02:39:08;;;;;;;16.33;11.40;;;;;;;-2.28;nan;99514.22;5001299;28;20466;-78
2023/12/04 02:41:33;;;;;;;12.85;8.23;;;;;;;-2.25;nan;99509.88;4997261;28;20235;-78
2023/12/04 02:43:59;;;;;;;8.23;7.43;;;;;;;-2.23;nan;99520.19;4999166;28;20219;-78
2023/12/04 02:46:24;;;;;;;9.90;5.57;;;;;;;-2.23;nan;99517.59;4994582;28;20220;-78
2023/12/04 02:48:50;;;;;;;12.30;7.23;;;;;;;-2.27;nan;99505.63;4999095;28;20226;-77
2023/12/04 02:51:15;;;;;;;9.90;8.80;;;;;;;-2.33;nan;99504.00;5004389;28;20214;-78
2023/12/04 02:53:40;;;;;;;11.10;6.80;;;;;;;-2.38;nan;99498.06;5008002;28;20210;-78
2023/12/04 02:56:06;;;;;;;10.23;8.00;;;;;;;-2.39;nan;99492.94;5003519;28;20245;-79
2023/12/04 02:58:34;;;;;;;9.70;7.53;;;;;;;-2.38;nan;99499.78;5009741;28;20981;-78
2023/12/04 03:00:59;;;;;;;10.18;6.65;;;;;;;-2.38;nan;99494.63;5002411;28;20461;-78
2023/12/04 03:03:24;;;;;;;12.00;6.60;;;;;;;-2.38;nan;99494.63;5012508;28;20204;-78
2023/12/04 03:05:50;;;;;;;14.63;7.33;;;;;;;-2.36;nan;99498.06;5008484;28;20210;-78
2023/12/04 03:08:15;;;;;;;12.50;8.07;;;;;;;-2.35;nan;99481.72;5010195;28;20690;-78
2023/12/04 03:10:41;;;;;;;8.77;6.70;;;;;;;-2.36;nan;99469.75;5006587;28;20248;-79
2023/12/04 03:13:06;;;;;;;15.17;8.57;;;;;;;-2.46;nan;99466.44;5014554;28;20222;-78
2023/12/04 03:15:31;;;;;;;8.83;6.67;;;;;;;-2.46;nan;99469.88;5004182;28;20191;-79
2023/12/04 03:17:59;;;;;;;8.90;7.17;;;;;;;-2.46;nan;99472.47;5007137;28;20671;-78
2023/12/04 03:20:25;;;;;;;17.02;7.93;;;;;;;-2.43;nan;99462.97;5003716;28;20265;-78
2023/12/04 03:22:50;;;;;;;15.77;8.20;;;;;;;-2.43;nan;99458.72;5007347;28;20195;-79
2023/12/04 03:25:15;;;;;;;9.53;6.00;;;;;;;-2.43;nan;99462.97;5008512;28;20234;-79
2023/12/04 03:27:41;;;;;;;15.37;7.53;;;;;;;-2.46;nan;99444.16;5000458;28;20623;-79
2023/12/04 03:30:06;;;;;;;12.73;7.30;;;;;;;-2.51;nan;99433.09;5007110;28;20221;-78
2023/12/04 03:32:32;;;;;;;9.67;7.70;;;;;;;-2.56;nan;99429.72;5006257;28;20226;-78
2023/12/04 03:34:57;;;;;;;9.10;4.90;;;;;;;-2.52;nan;99433.94;5009455;28;20458;-79
2023/12/04 03:37:23;;;;;;;11.73;6.60;;;;;;;-2.47;nan;99441.59;5009274;28;20554;-80
2023/12/04 03:39:48;;;;;;;12.00;5.67;;;;;;;-2.46;nan;99418.44;5017238;28;20190;-78
2023/12/04 03:42:13;;;;;;;10.90;6.33;;;;;;;-2.50;nan;99406.50;5015155;28;20219;-79
2023/12/04 03:44:39;;;;;;;10.47;7.67;;;;;;;-2.56;nan;99396.31;5013255;28;20252;-77
2023/12/04 03:47:04;;;;;;;9.30;5.70;;;;;;;-2.53;nan;99401.41;5007349;28;20760;-78
2023/12/04 03:49:29;;;;;;;13.27;6.20;;;;;;;-2.49;nan;99397.91;5008247;28;20246;-78
2023/12/04 03:51:55;;;;;;;8.10;5.57;;;;;;;-2.44;nan;99400.41;5009808;28;20268;-79
2023/12/04 03:54:20;;;;;;;10.90;6.03;;;;;;;-2.37;nan;99404.59;5006355;28;20257;-77
2023/12/04 03:56:46;;;;;;;6.33;5.73;;;;;;;-2.30;nan;99393.31;5011034;28;20257;-78
2023/12/04 03:59:11;;;;;;;7.27;5.83;;;;;;;-2.26;nan;99387.28;5012316;28;20597;-77
2023/12/04 04:01:36;;;;;;;10.60;4.47;;;;;;;-2.22;nan;99378.63;5009486;28;20190;-77
2023/12/04 04:04:02;;;;;;;10.40;5.53;;;;;;;-2.17;nan;99378.56;5011218;28;20199;-79
2023/12/04 04:06:27;;;;;;;7.07;4.93;;;;;;;-2.12;nan;99381.91;5004232;28;20588;-80
2023/12/04 04:08:53;;;;;;;7.00;5.50;;;;;;;-2.10;nan;99369.88;5010221;28;20187;-79
2023/12/04 04:11:18;;;;;;;9.00;6.07;;;;;;;-2.08;nan;99368.16;5001315;28;20685;-78
2023/12/04 04:13:44;;;;;;;10.63;7.10;;;;;;;-2.08;nan;99365.56;5005203;28;20246;-78
2023/12/04 04:16:14;;;;;;;9.63;5.93;;;;;;;-2.08;nan;99365.56;5006741;28;20211;-78
2023/12/04 04:18:40;;;;;;;4.75;4.30;;;;;;;-2.10;nan;99364.75;5014256;28;20226;-78
2023/12/04 04:21:05;;;;;;;6.87;4.20;;;;;;;-2.10;nan;99349.31;5002528;28;20223;-78
2023/12/04 04:23:31;;;;;;;6.97;5.20;;;;;;;-2.11;nan;99347.56;5015507;28;20199;-79
2023/12/04 04:25:56;;;;;;;9.87;4.93;;;;;;;-2.11;nan;99347.56;5009375;28;20222;-78
2023/12/04 04:28:21;;;;;;;7.47;5.10;;;;;;;-2.12;nan;99340.75;5014201;28;20953;-78
2023/12/04 04:30:47;;;;;;;11.53;6.77;;;;;;;-2.14;nan;99337.34;5007801;28;20264;-78
2023/12/04 04:33:12;;;;;;;8.77;5.07;;;;;;;-2.17;nan;99342.53;5006219;28;20933;-78
2023/12/04 04:35:38;;;;;;;6.87;5.33;;;;;;;-2.16;nan;99341.69;5009090;28;20317;-79
2023/12/04 04:38:04;;;;;;;8.13;5.90;;;;;;;-2.15;nan;99332.25;5014819;28;20237;-80
2023/12/04 04:40:29;;;;;;;7.53;5.93;;;;;;;-2.13;nan;99344.22;5004457;28;20191;-78
2023/12/04 04:42:54;;;;;;;9.63;5.33;;;;;;;-2.08;nan;99351.81;5000893;28;20569;-78
2023/12/04 04:45:20;;;;;;;10.43;4.70;;;;;;;-2.04;nan;99348.34;5001562;28;20222;-78
2023/12/04 04:47:45;;;;;;;9.97;6.87;;;;;;;-2.02;nan;99341.47;5010233;28;20202;-78
2023/12/04 04:50:10;;;;;;;8.43;6.87;;;;;;;-1.97;nan;99349.94;5004563;28;20199;-78
2023/12/04 04:52:36;;;;;;;9.43;8.47;;;;;;;-1.97;nan;99337.09;5010742;28;20186;-78
2023/12/04 04:55:01;;;;;;;10.27;6.67;;;;;;;-1.94;nan;99343.91;5003979;28;20195;-78
2023/12/04 04:57:26;;;;;;;12.30;8.03;;;;;;;-1.89;nan;99344.66;5005551;28;20191;-78
2023/12/04 04:59:52;;;;;;;10.40;7.73;;;;;;;-1.89;nan;99348.09;5005227;28;20878;-78
2023/12/04 05:02:17;;;;;;;12.20;7.77;;;;;;;-1.88;nan;99354.09;5002602;28;20622;-78
2023/12/04 05:04:43;;;;;;;18.40;8.53;;;;;;;-1.87;nan;99351.47;5003742;28;20214;-80
2023/12/04 05:07:08;;;;;;;18.43;9.73;;;;;;;-1.84;nan;99346.25;5009493;28;20238;-78
2023/12/04 05:09:34;;;;;;;12.90;7.87;;;;;;;-1.80;nan;99344.50;5014138;28;20181;-79
2023/12/04 05:11:59;;;;;;;21.30;9.20;;;;;;;-1.79;nan;99336.72;5003646;28;20667;-78
2023/12/04 05:14:24;;;;;;;15.47;9.30;;;;;;;-1.75;nan;99334.13;5001465;28;20195;-78
2023/12/04 05:16:50;;;;;;;15.57;8.13;;;;;;;-1.74;nan;99330.66;5003972;28;20225;-78
2023/12/04 05:19:15;;;;;;;14.43;8.57;;;;;;;-1.72;nan;99340.06;5011550;28;20851;-79
2023/12/04 05:21:40;;;;;;;13.73;11.13;;;;;;;-1.70;nan;99342.59;5008710;28;20198;-78
2023/12/04 05:24:06;;;;;;;16.30;9.80;;;;;;;-1.70;nan;99340.91;5008095;28;20768;-78
2023/12/04 05:26:31;;;;;;;31.67;16.47;;;;;;;-1.69;nan;99337.44;5016745;28;20234;-79
2023/12/04 05:28:57;;;;;;;22.90;15.33;;;;;;;-1.67;nan;99327.97;5005823;28;20192;-78
2023/12/04 05:31:25;;;;;;;27.83;12.70;;;;;;;-1.65;nan;99322.75;5010149;28;20245;-77
2023/12/04 05:33:51;;;;;;;11.52;8.73;;;;;;;-1.67;nan;99322.81;5006268;28;20205;-78
2023/12/04 05:36:16;;;;;;;15.83;9.70;;;;;;;-1.67;nan;99312.50;5006212;28;20274;-78
2023/12/04 05:38:41;;;;;;;19.98;14.20;;;;;;;-1.61;nan;99317.53;5009912;28;20470;-78
2023/12/04 05:41:07;;;;;;;16.57;11.50;;;;;;;-1.59;nan;99300.34;4997023;28;20378;-78
2023/12/04 05:43:32;;;;;;;14.43;9.40;;;;;;;-1.59;nan;99300.34;5001756;28;20277;-78
2023/12/04 05:45:58;;;;;;;10.93;8.60;;;;;;;-1.60;nan;99292.63;5004221;28;20282;-79
2023/12/04 05:48:23;;;;;;;16.80;12.33;;;;;;;-1.64;nan;99288.44;5004857;28;20198;-78
2023/12/04 05:50:49;;;;;;;18.47;10.57;;;;;;;-1.66;nan;99283.28;5011554;28;20174;-79
2023/12/04 05:53:14;;;;;;;15.03;10.20;;;;;;;-1.65;nan;99300.44;5006225;28;20194;-78
2023/12/04 05:55:40;;;;;;;19.20;10.40;;;;;;;-1.61;nan;99296.09;5006512;28;20191;-78
2023/12/04 05:58:05;;;;;;;15.70;8.00;;;;;;;-1.58;nan;99285.72;5000756;28;20195;-79
2023/12/04 06:00:31;;;;;;;13.37;8.23;;;;;;;-1.52;nan;99289.91;5008556;28;20435;-78
2023/12/04 06:02:56;;;;;;;11.90;7.23;;;;;;;-1.50;nan;99286.41;4996788;28;20192;-78
2023/12/04 06:05:23;;;;;;;15.93;9.23;;;;;;;-1.46;nan;99282.91;5007232;28;20290;-79
2023/12/04 06:07:48;;;;;;;18.60;10.95;;;;;;;-1.42;nan;99275.97;5002500;28;21054;-78
2023/12/04 06:10:13;;;;;;;14.10;10.77;;;;;;;-1.37;nan;99289.59;5005381;28;20692;-79
2023/12/04 06:12:39;;;;;;;15.07;10.93;;;;;;;-1.35;nan;99287.81;5007649;28;20221;-78
2023/12/04 06:15:05;;;;;;;15.83;11.47;;;;;;;-1.34;nan;99289.53;5004178;28;20199;-78
2023/12/04 06:17:30;;;;;;;19.00;11.82;;;;;;;-1.34;nan;99274.09;5015971;28;20245;-79
2023/12/04 06:19:55;;;;;;;14.87;12.27;;;;;;;-1.35;nan;99288.69;5008639;28;20182;-78
2023/12/04 06:22:21;;;;;;;15.07;11.27;;;;;;;-1.34;nan;99271.50;5016230;28;20603;-78
2023/12/04 06:24:48;;;;;;;15.17;9.10;;;;;;;-1.33;nan;99265.47;5013136;28;20248;-79
2023/12/04 06:27:18;;;;;;;16.33;9.15;;;;;;;-1.35;nan;99270.66;5007561;28;20495;-78
2023/12/04 06:29:44;;;;;;;17.73;11.40;;;;;;;-1.35;nan;99268.09;5009830;28;20202;-78
2023/12/04 06:32:10;;;;;;;17.07;10.00;;;;;;;-1.33;nan;99283.50;5004598;28;20272;-79
2023/12/04 06:34:36;;;;;;;23.02;12.23;;;;;;;-1.33;nan;99292.06;5015077;28;20203;-78
2023/12/04 06:37:09;;;;;;;13.33;9.27;;;;;;;-1.31;nan;99304.94;5013983;28;20285;-78
2023/12/04 06:39:37;;;;;;;22.23;11.05;;;;;;;-1.30;nan;99305.78;5009114;28;20546;-78
2023/12/04 06:42:03;;;;;;;14.82;10.77;;;;;;;-1.31;nan;99304.94;4994589;28;20187;-79
2023/12/04 06:44:29;;;;;;;14.18;10.98;;;;;;;-1.30;nan;99296.31;5003397;28;20211;-78
2023/12/04 06:46:59;;;;;;;15.27;9.37;;;;;;;-1.27;nan;99310.88;5005590;28;20801;-79
2023/12/04 06:49:29;;;;;;;18.13;10.40;;;;;;;-1.28;nan;99293.72;5008082;28;20221;-80
2023/12/04 06:51:55;;;;;;;24.13;9.85;;;;;;;-1.28;nan;99294.56;5002583;28;20248;-79
2023/12/04 06:54:20;;;;;;;26.40;12.00;;;;;;;-1.28;nan;99278.25;5000023;28;20700;-79
2023/12/04 06:56:45;;;;;;;20.93;12.90;;;;;;;-1.26;nan;99281.66;5002318;28;20278;-79
2023/12/04 06:59:11;;;;;;;17.60;10.27;;;;;;;-1.25;nan;99263.56;5004089;28;20283;-78
2023/12/04 07:01:36;;;;;;;17.50;12.13;;;;;;;-1.24;nan;99265.28;4997602;28;20203;-78
2023/12/04 07:04:01;;;;;;;17.43;10.00;;;;;;;-1.19;nan;99252.28;4994052;28;20233;-78
2023/12/04 07:06:27;;;;;;;19.40;10.57;;;;;;;-1.21;nan;99249.75;4990378;28;20450;-79
2023/12/04 07:08:52;;;;;;;19.07;12.50;;;;;;;-1.29;nan;99225.03;4999522;28;20207;-78
2023/12/04 07:11:18;;;;;;;18.77;10.17;;;;;;;-1.30;nan;99224.16;4995900;28;20203;-78
2023/12/04 07:13:43;;;;;;;22.07;9.73;;;;;;;-1.27;nan;99224.13;4990952;28;20836;-80
2023/12/04 07:16:09;;;;;;;19.63;12.07;;;;;;;-1.25;nan;99216.34;4997338;28;20199;-78
2023/12/04 07:18:34;;;;;;;19.20;11.33;;;;;;;-1.22;nan;99204.22;4996799;28;20285;-78
2023/12/04 07:21:00;;;;;;;21.50;13.17;;;;;;;-1.21;nan;99202.53;4996535;28;20488;-79
2023/12/04 07:23:25;;;;;;;18.53;11.20;;;;;;;-1.20;nan;99199.06;4988609;28;20246;-77
2023/12/04 07:25:52;;;;;;;13.07;8.90;;;;;;;-1.15;nan;99192.06;4995664;28;20215;-78
2023/12/04 07:28:18;;;;;;;21.15;13.10;;;;;;;-1.12;nan;99187.69;4994507;28;20249;-78
2023/12/04 07:30:43;;;;;;;18.77;9.77;;;;;;;-1.12;nan;99197.16;4989566;28;20207;-77
2023/12/04 07:33:08;;;;;;;25.63;13.30;;;;;;;-1.10;nan;99179.09;4990872;28;20210;-78
2023/12/04 07:35:34;;;;;;;21.27;12.50;;;;;;;-1.08;nan;99169.56;4996971;28;20652;-78
2023/12/04 07:37:59;;;;;;;17.53;10.40;;;;;;;-1.06;nan;99171.22;4998652;28;20317;-78
2023/12/04 07:40:24;;;;;;;23.97;10.83;;;;;;;-1.05;nan;99170.38;4994815;28;20637;-78
2023/12/04 07:42:50;;;;;;;20.27;9.40;;;;;;;-1.02;nan;99162.56;4998879;28;20352;-78
2023/12/04 07:45:16;;;;;;;19.80;10.80;;;;;;;-0.99;nan;99157.31;4995889;28;20203;-77
2023/12/04 07:47:41;;;;;;;14.53;10.43;;;;;;;-0.94;nan;99162.38;4994058;28;20227;-78
2023/12/04 07:50:07;;;;;;;23.40;12.90;;;;;;;-0.93;nan;99146.00;4998253;28;20195;-78
2023/12/04 07:52:32;;;;;;;24.53;12.03;;;;;;;-0.92;nan;99150.28;4995592;28;20207;-78
2023/12/04 07:54:58;;;;;;;22.40;12.43;;;;;;;-0.90;nan;99154.50;4991832;28;20210;-79
2023/12/04 07:57:23;;;;;;;17.60;10.83;;;;;;;-0.85;nan;99167.31;4997035;28;20196;-78
2023/12/04 07:59:48;;;;;;;17.80;9.70;;;;;;;-0.83;nan;99180.16;4994426;28;21024;-78
2023/12/04 08:02:14;;;;;;;21.90;11.80;;;;;;;-0.84;nan;99179.28;4994059;28;20199;-79
2023/12/04 08:04:39;;;;;;;19.67;12.10;;;;;;;-0.83;nan;99169.84;4989347;28;20303;-78
2023/12/04 08:07:05;;;;;;;15.73;11.57;;;;;;;-0.81;nan;99163.78;4999369;28;20253;-77
2023/12/04 08:09:30;;;;;;;20.60;12.07;;;;;;;-0.79;nan;99166.31;4996590;28;20226;-78
2023/12/04 08:11:56;;;;;;;28.73;14.40;;;;;;;-0.80;nan;99183.50;4992138;28;20204;-77
2023/12/04 08:14:21;;;;;;;22.50;12.60;;;;;;;-0.80;nan;99193.81;4994147;28;20716;-78
2023/12/04 08:16:48;;;;;;;25.53;14.07;;;;;;;-0.80;nan;99196.41;4995267;28;20187;-77
2023/12/04 08:19:13;;;;;;;21.70;11.60;;;;;;;-0.79;nan;99192.09;5002994;28;20306;-79
2023/12/04 08:21:38;;;;;;;19.60;11.03;;;;;;;-0.76;nan;99205.75;4996840;28;20195;-78
2023/12/04 08:24:04;;;;;;;25.57;12.97;;;;;;;-0.75;nan;99206.63;4995150;28;20530;-79
2023/12/04 08:26:29;;;;;;;22.17;13.03;;;;;;;-0.73;nan;99203.13;4999286;28;20215;-78
2023/12/04 08:28:56;;;;;;;26.53;11.67;;;;;;;-0.70;nan;99215.94;4997439;28;20192;-77
2023/12/04 08:31:21;;;;;;;17.35;11.00;;;;;;;-0.67;nan;99222.75;5000934;28;20203;-78
2023/12/04 08:33:47;;;;;;;23.87;12.57;;;;;;;-0.64;nan;99234.72;4998005;28;20213;-77
2023/12/04 08:36:12;;;;;;;15.40;10.03;;;;;;;-0.64;nan;99217.50;4997377;28;20189;-77
2023/12/04 08:38:38;;;;;;;21.27;10.70;;;;;;;-0.62;nan;99230.34;4996638;28;20269;-79
2023/12/04 08:41:04;;;;;;;18.93;11.00;;;;;;;-0.62;nan;99232.94;4999518;28;20282;-77
2023/12/04 08:43:29;;;;;;;18.67;12.13;;;;;;;-0.61;nan;99232.91;4999296;28;20249;-78
2023/12/04 08:45:55;;;;;;;17.87;10.43;;;;;;;-0.62;nan;99205.44;4998368;28;20214;-78
2023/12/04 08:48:20;;;;;;;23.57;12.43;;;;;;;-0.59;nan;99217.41;5000503;28;20218;-78
2023/12/04 08:50:46;;;;;;;26.20;12.43;;;;;;;-0.58;nan;99204.47;4993798;28;20195;-77
2023/12/04 08:53:12;;;;;;;28.57;13.70;;;;;;;-0.57;nan;99225.94;4997801;28;20700;-78
2023/12/04 08:55:37;;;;;;;24.43;13.90;;;;;;;-0.57;nan;99190.66;4996557;28;20494;-79
2023/12/04 08:58:03;;;;;;;22.80;13.40;;;;;;;-0.58;nan;99182.97;4994051;28;20665;-78
2023/12/04 09:00:29;;;;;;;19.75;14.40;;;;;;;-0.62;nan;99173.59;4997492;28;20203;-79
2023/12/04 09:02:54;;;;;;;21.00;11.17;;;;;;;-0.61;nan;99195.97;4993709;28;20586;-77
2023/12/04 09:05:20;;;;;;;20.77;10.97;;;;;;;-0.58;nan;99188.13;4993073;28;20200;-79
2023/12/04 09:07:45;;;;;;;17.93;11.60;;;;;;;-0.57;nan;99185.50;5000801;28;20226;-79
2023/12/04 09:10:10;;;;;;;24.57;12.27;;;;;;;-0.52;nan;99175.91;4999071;28;20223;-77
2023/12/04 09:12:37;;;;;;;21.03;11.80;;;;;;;-0.47;nan;99174.06;4999568;28;20228;-79
2023/12/04 09:15:04;;;;;;;19.45;10.80;;;;;;;-0.41;nan;99170.47;4999116;28;20207;-78
2023/12/04 09:17:30;;;;;;;18.38;9.32;;;;;;;-0.36;nan;99168.63;5000228;28;20242;-76
2023/12/04 09:19:55;;;;;;;20.83;12.40;;;;;;;-0.31;nan;99194.31;4995521;28;20195;-76
2023/12/04 09:22:20;;;;;;;20.30;13.63;;;;;;;-0.27;nan;99177.84;4996825;28;20382;-76
2023/12/04 09:24:46;;;;;;;22.70;15.00;;;;;;;-0.24;nan;99194.13;4997673;28;20773;-78
2023/12/04 09:27:11;;;;;;;27.13;14.07;;;;;;;-0.18;nan;99184.53;4994853;28;20207;-77
2023/12/04 09:29:37;;;;;;;21.40;12.37;;;;;;;-0.15;nan;99187.03;4998841;28;20195;-77
2023/12/04 09:32:03;;;;;;;17.57;12.60;;;;;;;-0.13;nan;99173.19;4999124;28;20833;-78
2023/12/04 09:34:28;;;;;;;30.33;15.23;;;;;;;-0.14;nan;99194.72;4992910;28;20462;-78
2023/12/04 09:36:54;;;;;;;28.30;16.87;;;;;;;-0.15;nan;99205.09;5000212;28;21315;-78
2023/12/04 09:39:19;;;;;;;24.33;15.13;;;;;;;-0.14;nan;99201.63;5000782;28;20215;-78
2023/12/04 09:41:46;;;;;;;27.13;14.00;;;;;;;-0.15;nan;99182.72;4998886;28;20699;-78
2023/12/04 09:44:12;;;;;;;19.50;12.63;;;;;;;-0.13;nan;99191.25;4999134;28;20962;-78
2023/12/04 09:46:38;;;;;;;29.30;17.50;;;;;;;-0.25;nan;99158.03;4995990;28;20318;-78
2023/12/04 09:49:04;;;;;;;22.05;11.40;;;;;;;-0.15;nan;99177.53;5001336;28;20199;-78
2023/12/04 09:51:30;;;;;;;23.70;12.05;;;;;;;-0.10;nan;99154.19;4994084;28;20673;-78
2023/12/04 09:54:00;;;;;;;20.50;12.43;;;;;;;-0.08;nan;99147.22;5001750;28;20207;-77
2023/12/04 09:56:26;;;;;;;26.95;13.25;;;;;;;-0.03;nan;99151.41;5003764;28;20194;-77
2023/12/04 09:59:00;;;;;;;30.15;13.38;;;;;;;0.03;nan;99144.34;4997911;28;20210;-78
2023/12/04 10:01:28;;;;;;;22.80;12.45;;;;;;;0.08;nan;99148.53;4997755;28;20246;-78
2023/12/04 10:03:54;;;;;;;19.17;12.18;;;;;;;0.14;nan;99148.34;4995533;28;20210;-77
2023/12/04 10:06:19;;;;;;;22.07;12.47;;;;;;;0.19;nan;99154.22;4997913;28;20226;-78
2023/12/04 10:08:45;;;;;;;28.00;18.63;;;;;;;0.25;nan;99149.78;5011538;28;20439;-77
2023/12/04 10:11:12;;;;;;;26.08;15.15;;;;;;;0.27;nan;99138.50;4998945;28;20655;-77
2023/12/04 10:13:38;;;;;;;25.48;15.15;;;;;;;0.31;nan;99136.66;4997249;28;21004;-77
2023/12/04 10:16:04;;;;;;;23.73;12.30;;;;;;;0.36;nan;99133.06;5000885;28;20187;-77
2023/12/04 10:18:31;;;;;;;20.80;12.77;;;;;;;0.41;nan;99131.19;4998807;28;20195;-77
2023/12/04 10:20:57;;;;;;;20.13;12.35;;;;;;;0.46;nan;99127.59;4995207;28;20191;-78
2023/12/04 10:23:39;;;;;;;30.38;16.33;;;;;;;0.53;nan;99121.38;4992645;28;20234;-77
2023/12/04 10:26:07;;;;;;;22.98;13.80;;;;;;;0.57;nan;99122.97;5001033;28;20309;-77
2023/12/04 10:28:32;;;;;;;20.33;12.32;;;;;;;0.63;nan;99109.88;4998409;28;20893;-77
2023/12/04 10:30:58;;;;;;;21.73;13.07;;;;;;;0.69;nan;99116.56;4997935;28;20278;-77
2023/12/04 10:33:28;;;;;;;23.10;12.47;;;;;;;0.74;nan;99120.69;4996258;28;20247;-77
2023/12/04 10:35:55;;;;;;;14.48;9.88;;;;;;;0.78;nan;99116.28;4995101;28;20242;-77
2023/12/04 10:38:20;;;;;;;40.05;21.95;;;;;;;0.82;nan;99117.88;4986959;28;20476;-77
2023/12/04 10:40:46;;;;;;;33.63;18.50;;;;;;;0.81;nan;99119.63;4996172;28;20473;-78
2023/12/04 10:43:16;;;;;;;27.17;14.67;;;;;;;0.82;nan;99103.22;4997355;28;20214;-77
2023/12/04 10:45:45;;;;;;;24.33;12.63;;;;;;;0.81;nan;99093.78;4997576;28;20484;-77
2023/12/04 10:48:12;;;;;;;15.75;12.90;;;;;;;0.79;nan;99085.22;4996982;28;20299;-77
2023/12/04 10:50:39;;;;;;;21.95;12.88;;;;;;;0.78;nan;99061.97;5001618;28;20195;-77
2023/12/04 10:53:05;;;;;;;21.35;11.45;;;;;;;0.79;nan;99058.53;4995461;28;20216;-77
2023/12/04 10:55:31;;;;;;;23.30;12.00;;;;;;;0.80;nan;99045.53;4993140;28;20253;-77
2023/12/04 10:57:59;;;;;;;21.95;12.02;;;;;;;0.82;nan;99054.09;4998036;28;20604;-77
2023/12/04 11:00:27;;;;;;;18.17;11.80;;;;;;;0.87;nan;99051.34;5002955;28;20249;-76
2023/12/04 11:02:55;;;;;;;19.02;12.20;;;;;;;0.92;nan;99033.97;4999112;28;20207;-77
2023/12/04 11:05:23;;;;;;;18.75;12.10;;;;;;;0.94;nan;99024.38;4994656;28;20217;-77
2023/12/04 11:07:56;;;;;;;21.20;15.10;;;;;;;0.95;nan;99017.50;4997547;28;20430;-78
2023/12/04 11:10:25;;;;;;;22.50;12.48;;;;;;;0.94;nan;99011.44;4994921;28;20211;-76
2023/12/04 11:13:07;;;;;;;20.45;12.82;;;;;;;0.93;nan;99004.59;4995643;28;20202;-76
2023/12/04 11:15:42;;;;;;;18.73;11.45;;;;;;;0.95;nan;99002.81;4992563;28;20233;-77
2023/12/04 11:18:11;;;;;;;19.88;10.85;;;;;;;0.98;nan;99001.88;4994923;28;20221;-76
2023/12/04 11:20:43;;;;;;;20.27;11.70;;;;;;;0.95;nan;98983.88;5010876;28;20288;-76
2023/12/04 11:23:09;;;;;;;19.13;11.75;;;;;;;0.90;nan;98976.28;4998748;28;20199;-76
2023/12/04 11:25:35;;;;;;;17.37;10.20;;;;;;;0.90;nan;98958.16;4996019;28;20576;-76
2023/12/04 11:28:02;;;;;;;20.38;14.57;;;;;;;0.93;nan;98976.16;4999112;28;20199;-77
2023/12/04 11:30:29;;;;;;;16.45;12.52;;;;;;;0.96;nan;98955.38;4992849;28;20714;-76
2023/12/04 11:32:56;;;;;;;12.77;10.65;;;;;;;0.99;nan;98946.66;4997150;28;20599;-76
2023/12/04 11:35:25;;;;;;;22.98;12.43;;;;;;;1.01;nan;98953.47;4996365;28;20298;-77